JKK1LG LIEE-LEBL
Flight info
| Callsign | JKK1LG |
|---|---|
| Flight time | N/A |
| Altitude | 32000 |
| Route | KOVAS DCT GIGGI DCT MOROB DCT EPIKU DCT GINOX DCT KIFMI/N0436F280 DCT ELVOP DCT MUREN DCT CHELY DCT VERSO |
| Aircraft | MD88/M-SDFGIRWY/C |
Departure
| Time | 2026-04-30 20:18 |
|---|---|
| Airport | Cagliari Elmas Airport (LIEE) |
Arrival
| Time | N/A |
|---|---|
| Airport | Josep Tarradellas Barcelona-El Prat Airport (LEBL) |
| Time | Latitude | Longitude | Altitude | Speed | Heading |
|---|---|---|---|---|---|
| 2026-04-30 20:07 | 39.25157 | 9.06072 | 19 ft | 0 kts | 142° |
| 2026-04-30 20:08 | 39.25163 | 9.06066 | 19 ft | 2 kts | 142° |
| 2026-04-30 20:08 | 39.25175 | 9.06054 | 19 ft | 2 kts | 142° |
| 2026-04-30 20:08 | 39.25187 | 9.06042 | 19 ft | 2 kts | 144° |
| 2026-04-30 20:09 | 39.25201 | 9.06037 | 19 ft | 2 kts | 187° |
| 2026-04-30 20:09 | 39.25215 | 9.06044 | 19 ft | 2 kts | 219° |
| 2026-04-30 20:09 | 39.25223 | 9.06056 | 19 ft | 0 kts | 232° |
| 2026-04-30 20:13 | 39.25221 | 9.06053 | 19 ft | 1 kts | 232° |
| 2026-04-30 20:13 | 39.25210 | 9.06034 | 19 ft | 3 kts | 231° |
| 2026-04-30 20:13 | 39.25188 | 9.05999 | 19 ft | 6 kts | 231° |
| 2026-04-30 20:14 | 39.25151 | 9.05940 | 19 ft | 10 kts | 236° |
| 2026-04-30 20:14 | 39.25150 | 9.05846 | 19 ft | 11 kts | 252° |
| 2026-04-30 20:14 | 39.25127 | 9.05738 | 19 ft | 14 kts | 295° |
| 2026-04-30 20:14 | 39.25207 | 9.05632 | 19 ft | 19 kts | 318° |
| 2026-04-30 20:15 | 39.25317 | 9.05505 | 19 ft | 22 kts | 318° |
| 2026-04-30 20:15 | 39.25444 | 9.05358 | 19 ft | 26 kts | 318° |
| 2026-04-30 20:15 | 39.25590 | 9.05191 | 19 ft | 29 kts | 317° |
| 2026-04-30 20:15 | 39.25745 | 9.05011 | 19 ft | 31 kts | 318° |
| 2026-04-30 20:16 | 39.25908 | 9.04823 | 19 ft | 31 kts | 318° |
| 2026-04-30 20:16 | 39.26069 | 9.04636 | 19 ft | 24 kts | 318° |
| 2026-04-30 20:16 | 39.26129 | 9.04468 | 19 ft | 16 kts | 266° |
| 2026-04-30 20:16 | 39.26096 | 9.04387 | 19 ft | 8 kts | 228° |
| 2026-04-30 20:17 | 39.26070 | 9.04368 | 19 ft | 1 kts | 160° |
| 2026-04-30 20:17 | 39.26059 | 9.04377 | 19 ft | 1 kts | 140° |
| 2026-04-30 20:17 | 39.26057 | 9.04379 | 19 ft | 4 kts | 140° |
| 2026-04-30 20:17 | 39.25882 | 9.04580 | 19 ft | 64 kts | 137° |
| 2026-04-30 20:18 | 39.25380 | 9.05163 | 19 ft | 128 kts | 139° |
| 2026-04-30 20:18 | 39.24581 | 9.06089 | 143 ft | 170 kts | 138° |
| 2026-04-30 20:18 | 39.23639 | 9.07152 | 562 ft | 190 kts | 139° |
| 2026-04-30 20:18 | 39.22642 | 9.08223 | 1243 ft | 189 kts | 140° |
| 2026-04-30 20:19 | 39.21631 | 9.09288 | 1884 ft | 186 kts | 141° |
| 2026-04-30 20:19 | 39.20662 | 9.10295 | 2571 ft | 178 kts | 141° |
| 2026-04-30 20:19 | 39.19672 | 9.11294 | 3044 ft | 184 kts | 143° |
| 2026-04-30 20:19 | 39.18613 | 9.12274 | 3538 ft | 188 kts | 146° |
| 2026-04-30 20:20 | 39.17320 | 9.12768 | 3662 ft | 215 kts | 183° |
| 2026-04-30 20:20 | 39.15807 | 9.12304 | 4003 ft | 231 kts | 202° |
| 2026-04-30 20:20 | 39.14370 | 9.11369 | 4616 ft | 235 kts | 213° |
| 2026-04-30 20:20 | 39.13097 | 9.10076 | 5309 ft | 237 kts | 225° |
| 2026-04-30 20:21 | 39.12034 | 9.08456 | 5951 ft | 240 kts | 236° |
| 2026-04-30 20:21 | 39.11227 | 9.06582 | 6619 ft | 242 kts | 248° |
| 2026-04-30 20:21 | 39.10736 | 9.04488 | 7093 ft | 253 kts | 261° |
| 2026-04-30 20:21 | 39.10795 | 9.02191 | 7477 ft | 265 kts | 286° |
| 2026-04-30 20:22 | 39.11619 | 9.00168 | 8425 ft | 253 kts | 308° |
| 2026-04-30 20:22 | 39.12869 | 8.98441 | 8477 ft | 280 kts | 322° |
| 2026-04-30 20:22 | 39.14662 | 8.97434 | 8923 ft | 288 kts | 352° |
| 2026-04-30 20:22 | 39.16635 | 8.97117 | 9661 ft | 286 kts | 352° |
| 2026-04-30 20:23 | 39.18624 | 8.96764 | 10206 ft | 293 kts | 352° |
| 2026-04-30 20:23 | 39.20716 | 8.96375 | 10266 ft | 317 kts | 352° |
| 2026-04-30 20:23 | 39.22971 | 8.95938 | 10396 ft | 336 kts | 351° |
| 2026-04-30 20:23 | 39.25283 | 8.95475 | 11045 ft | 338 kts | 351° |
| 2026-04-30 20:24 | 39.27633 | 8.94994 | 11612 ft | 342 kts | 351° |
| 2026-04-30 20:24 | 39.29996 | 8.94501 | 12213 ft | 345 kts | 351° |
| 2026-04-30 20:24 | 39.32366 | 8.93998 | 12784 ft | 348 kts | 351° |
| 2026-04-30 20:24 | 39.34758 | 8.93485 | 13351 ft | 351 kts | 351° |
| 2026-04-30 20:25 | 39.39610 | 8.92431 | 14443 ft | 356 kts | 350° |
| 2026-04-30 20:25 | 39.42053 | 8.92060 | 14930 ft | 360 kts | 1° |
| 2026-04-30 20:26 | 39.46835 | 8.93883 | 15938 ft | 364 kts | 32° |
| 2026-04-30 20:26 | 39.51238 | 8.97228 | 16911 ft | 370 kts | 30° |
| 2026-04-30 20:26 | 39.53448 | 8.98871 | 17389 ft | 372 kts | 30° |
| 2026-04-30 20:27 | 39.57980 | 9.02197 | 18316 ft | 377 kts | 29° |
| 2026-04-30 20:27 | 39.62597 | 9.05553 | 19203 ft | 382 kts | 29° |
| 2026-04-30 20:28 | 39.67632 | 9.07723 | 20042 ft | 387 kts | 6° |
| 2026-04-30 20:28 | 39.73033 | 9.08446 | 20855 ft | 392 kts | 6° |
| 2026-04-30 20:29 | 39.78468 | 9.09215 | 21635 ft | 397 kts | 6° |
| 2026-04-30 20:30 | 39.86746 | 9.10426 | 22740 ft | 404 kts | 6° |
| 2026-04-30 20:30 | 39.95188 | 9.11688 | 23777 ft | 410 kts | 6° |
| 2026-04-30 20:31 | 40.03758 | 9.12979 | 24744 ft | 416 kts | 6° |
| 2026-04-30 20:32 | 40.12419 | 9.14289 | 25645 ft | 422 kts | 6° |
| 2026-04-30 20:32 | 40.18261 | 9.15174 | 26213 ft | 426 kts | 6° |
| 2026-04-30 20:33 | 40.21229 | 9.15622 | 26488 ft | 427 kts | 5° |
| 2026-04-30 20:33 | 40.27061 | 9.14526 | 26998 ft | 430 kts | 338° |
| 2026-04-30 20:33 | 40.29726 | 9.12690 | 27291 ft | 431 kts | 325° |
| 2026-04-30 20:34 | 40.34273 | 9.07651 | 27965 ft | 429 kts | 319° |
| 2026-04-30 20:34 | 40.38804 | 9.02585 | 28631 ft | 428 kts | 320° |
| 2026-04-30 20:35 | 40.41077 | 9.00074 | 28948 ft | 427 kts | 320° |
| 2026-04-30 20:35 | 40.43345 | 8.97582 | 29261 ft | 427 kts | 320° |
| 2026-04-30 20:35 | 40.47871 | 8.92636 | 29849 ft | 426 kts | 320° |
| 2026-04-30 20:36 | 40.50153 | 8.90153 | 30147 ft | 425 kts | 320° |
| 2026-04-30 20:36 | 40.52436 | 8.87673 | 30421 ft | 425 kts | 320° |
| 2026-04-30 20:36 | 40.56987 | 8.82737 | 30965 ft | 424 kts | 320° |
| 2026-04-30 20:37 | 40.59252 | 8.80285 | 31236 ft | 423 kts | 321° |
| 2026-04-30 20:37 | 40.61521 | 8.77830 | 31483 ft | 423 kts | 321° |
| 2026-04-30 20:37 | 40.63788 | 8.75381 | 31735 ft | 422 kts | 320° |
| 2026-04-30 20:37 | 40.65856 | 8.72691 | 31938 ft | 422 kts | 310° |
| 2026-04-30 20:38 | 40.67578 | 8.69507 | 31999 ft | 426 kts | 300° |
| 2026-04-30 20:38 | 40.69923 | 8.62344 | 32011 ft | 436 kts | 291° |
| 2026-04-30 20:39 | 40.73331 | 8.51033 | 32004 ft | 448 kts | 292° |
| 2026-04-30 20:40 | 40.76827 | 8.39647 | 31999 ft | 444 kts | 292° |
| 2026-04-30 20:40 | 40.79158 | 8.32115 | 32001 ft | 443 kts | 292° |
| 2026-04-30 20:41 | 40.82663 | 8.20847 | 32002 ft | 444 kts | 292° |
| 2026-04-30 20:41 | 40.84914 | 8.13310 | 31997 ft | 444 kts | 287° |
| 2026-04-30 20:42 | 40.86131 | 8.05403 | 32003 ft | 444 kts | 275° |
| 2026-04-30 20:43 | 40.86812 | 7.93222 | 32005 ft | 444 kts | 275° |
| 2026-04-30 20:43 | 40.87352 | 7.85153 | 32002 ft | 444 kts | 275° |
| 2026-04-30 20:44 | 40.88137 | 7.72984 | 32002 ft | 444 kts | 275° |
| 2026-04-30 20:45 | 40.89171 | 7.56832 | 32002 ft | 444 kts | 275° |
| 2026-04-30 20:45 | 40.89695 | 7.48699 | 32002 ft | 444 kts | 275° |
| 2026-04-30 20:46 | 40.90748 | 7.32566 | 32002 ft | 444 kts | 275° |
| 2026-04-30 20:47 | 40.91557 | 7.20378 | 32002 ft | 444 kts | 275° |
| 2026-04-30 20:48 | 40.92374 | 7.08258 | 32002 ft | 444 kts | 275° |
| 2026-04-30 20:48 | 40.92929 | 7.00141 | 32002 ft | 444 kts | 275° |
| 2026-04-30 20:49 | 40.93485 | 6.92083 | 32002 ft | 444 kts | 275° |
| 2026-04-30 20:50 | 40.94208 | 6.79923 | 32001 ft | 444 kts | 274° |
| 2026-04-30 20:50 | 40.94653 | 6.71801 | 32002 ft | 444 kts | 274° |
| 2026-04-30 20:51 | 40.95091 | 6.63686 | 32002 ft | 444 kts | 274° |
| 2026-04-30 20:51 | 40.95750 | 6.51498 | 32002 ft | 444 kts | 274° |
| 2026-04-30 20:52 | 40.96189 | 6.43432 | 32002 ft | 444 kts | 274° |
| 2026-04-30 20:53 | 40.96861 | 6.31240 | 32002 ft | 444 kts | 274° |
| 2026-04-30 20:53 | 40.97315 | 6.23123 | 32002 ft | 444 kts | 274° |
| 2026-04-30 20:54 | 40.98006 | 6.10939 | 32002 ft | 444 kts | 274° |
| 2026-04-30 20:55 | 40.98708 | 5.98802 | 32002 ft | 444 kts | 274° |
| 2026-04-30 20:55 | 40.99186 | 5.90663 | 32002 ft | 444 kts | 275° |
| 2026-04-30 20:56 | 40.99895 | 5.78521 | 32001 ft | 444 kts | 274° |
| 2026-04-30 20:57 | 41.00467 | 5.66323 | 32002 ft | 444 kts | 274° |
| 2026-04-30 20:57 | 41.00834 | 5.58192 | 32002 ft | 444 kts | 274° |
| 2026-04-30 20:58 | 41.01382 | 5.46003 | 32002 ft | 444 kts | 274° |
| 2026-04-30 20:58 | 41.01749 | 5.37872 | 32002 ft | 444 kts | 274° |
| 2026-04-30 20:59 | 41.02306 | 5.25723 | 32002 ft | 444 kts | 273° |
| 2026-04-30 21:00 | 41.03071 | 5.09432 | 32002 ft | 444 kts | 274° |
| 2026-04-30 21:01 | 41.03657 | 4.97253 | 32002 ft | 444 kts | 274° |
| 2026-04-30 21:02 | 41.04255 | 4.85077 | 32002 ft | 444 kts | 274° |
| 2026-04-30 21:02 | 41.04663 | 4.76977 | 32001 ft | 444 kts | 275° |
| 2026-04-30 21:03 | 41.05494 | 4.68897 | 32001 ft | 444 kts | 278° |
| 2026-04-30 21:03 | 41.06368 | 4.60860 | 32001 ft | 444 kts | 278° |
| 2026-04-30 21:04 | 41.07261 | 4.52754 | 32001 ft | 444 kts | 278° |
| 2026-04-30 21:04 | 41.08544 | 4.40682 | 32002 ft | 444 kts | 278° |
| 2026-04-30 21:05 | 41.09380 | 4.32599 | 32002 ft | 444 kts | 277° |
| 2026-04-30 21:05 | 41.10194 | 4.24690 | 32002 ft | 444 kts | 277° |
| 2026-04-30 21:06 | 41.11016 | 4.16712 | 32002 ft | 444 kts | 277° |
| 2026-04-30 21:06 | 41.11751 | 4.09600 | 32002 ft | 444 kts | 278° |
| 2026-04-30 21:07 | 41.12073 | 4.06499 | 32002 ft | 444 kts | 278° |